Time;durP1;ratioP1;P1;durP2;ratioP2;P2;SDS_P1;SDS_P2;PMS_P1;PMS_P2;Temp;Humidity;BMP_temperature;BMP_pressure;BME280_temperature;BME280_humidity;BME280_pressure;Samples;Min_cycle;Max_cycle;Signal;HPM_P1;HPM_P2
2023/06/05 00:02:00;;;;;;;3.63;1.70;;;;;;;14.85;59.70;102117.44;5074664;28;20020;-77
2023/06/05 00:04:25;;;;;;;3.80;1.73;;;;;;;14.80;60.00;102129.75;5086297;28;20099;-77
2023/06/05 00:06:50;;;;;;;3.83;1.70;;;;;;;14.76;60.08;102133.34;5065601;28;20024;-77
2023/06/05 00:09:16;;;;;;;2.70;1.65;;;;;;;14.71;60.13;102131.66;5078624;28;20492;-78
2023/06/05 00:11:41;;;;;;;2.83;1.80;;;;;;;14.67;60.24;102132.63;5066740;28;20028;-77
2023/06/05 00:14:08;;;;;;;3.47;1.65;;;;;;;14.63;60.36;102127.47;5070675;28;20025;-77
2023/06/05 00:16:34;;;;;;;3.42;1.70;;;;;;;14.59;60.84;102128.47;5071310;28;20052;-78
2023/06/05 00:19:00;;;;;;;2.75;1.65;;;;;;;14.55;61.92;102125.91;5074109;28;20492;-77
2023/06/05 00:21:25;;;;;;;3.55;2.03;;;;;;;14.52;60.99;102123.34;5069952;28;20509;-77
2023/06/05 00:23:51;;;;;;;3.35;1.70;;;;;;;14.49;61.11;102125.19;5077443;28;20028;-77
2023/06/05 00:26:16;;;;;;;3.35;1.92;;;;;;;14.42;61.45;102119.22;5075406;28;20052;-77
2023/06/05 00:28:41;;;;;;;4.35;1.90;;;;;;;14.35;61.84;102123.69;5079383;28;20036;-77
2023/06/05 00:31:07;;;;;;;4.30;1.63;;;;;;;14.34;62.07;102126.34;5077017;28;20536;-77
2023/06/05 00:33:32;;;;;;;4.10;1.95;;;;;;;14.30;61.74;102122.94;5070353;28;20017;-77
2023/06/05 00:35:58;;;;;;;4.25;1.80;;;;;;;14.27;61.78;102120.38;5082100;28;20107;-77
2023/06/05 00:38:23;;;;;;;2.22;1.83;;;;;;;14.21;61.93;102124.00;5070354;28;20032;-77
2023/06/05 00:40:48;;;;;;;3.22;1.80;;;;;;;14.19;61.96;102123.16;5071287;28;20024;-77
2023/06/05 00:43:13;;;;;;;2.55;1.95;;;;;;;14.15;62.22;102120.66;5072751;28;20516;-77
2023/06/05 00:45:39;;;;;;;2.70;1.70;;;;;;;14.10;61.81;102116.34;5064649;28;20025;-77
2023/06/05 00:48:04;;;;;;;5.07;1.98;;;;;;;14.07;62.36;102121.66;5072586;28;20032;-77
2023/06/05 00:50:32;;;;;;;2.83;1.90;;;;;;;14.03;62.69;102117.34;5072466;28;20507;-77
2023/06/05 00:52:58;;;;;;;4.25;2.28;;;;;;;14.01;62.83;102118.28;5072397;28;20158;-77
2023/06/05 00:55:25;;;;;;;3.13;2.08;;;;;;;13.97;62.74;102114.88;5091295;28;20399;-77
2023/06/05 00:57:50;;;;;;;3.25;1.95;;;;;;;13.94;62.89;102114.94;5082003;28;20118;-77
2023/06/05 01:00:16;;;;;;;3.92;2.15;;;;;;;13.93;63.14;102118.44;5078288;28;20150;-77
2023/06/05 01:02:41;;;;;;;3.75;2.20;;;;;;;13.88;63.31;102115.03;5083485;28;20364;-77
2023/06/05 01:05:08;;;;;;;3.42;2.08;;;;;;;13.83;63.39;102120.38;5081908;28;20047;-77
2023/06/05 01:07:34;;;;;;;3.22;2.25;;;;;;;13.79;63.59;102118.69;5068748;28;20021;-77
2023/06/05 01:10:04;;;;;;;4.05;2.28;;;;;;;13.76;63.32;102118.75;5083814;28;20055;-77
2023/06/05 01:12:42;;;;;;;6.60;2.30;;;;;;;13.73;63.30;102116.22;5077975;28;20027;-77
2023/06/05 01:15:08;;;;;;;3.80;2.00;;;;;;;13.70;63.79;102121.50;5090387;28;20498;-77
2023/06/05 01:17:33;;;;;;;3.78;2.05;;;;;;;13.68;64.39;102121.50;5079984;28;20046;-77
2023/06/05 01:20:08;;;;;;;3.85;2.30;;;;;;;13.64;64.34;102112.88;5084895;28;20539;-77
2023/06/05 01:22:34;;;;;;;3.50;2.13;;;;;;;13.61;64.40;102109.44;5071236;28;20056;-77
2023/06/05 01:25:01;;;;;;;5.25;2.30;;;;;;;13.56;64.30;102106.03;5073995;28;20052;-77
2023/06/05 01:27:35;;;;;;;3.75;2.28;;;;;;;13.53;63.89;102100.88;5071999;28;20024;-78
2023/06/05 01:30:04;;;;;;;3.25;2.20;;;;;;;13.51;64.31;102114.81;5074646;28;20028;-77
2023/06/05 01:33:08;;;;;;;4.93;2.20;;;;;;;13.46;63.63;102108.84;5070154;28;21726;-77
2023/06/05 01:35:35;;;;;;;2.92;2.28;;;;;;;13.44;64.87;102108.00;5048549;28;20040;-77
2023/06/05 01:38:09;;;;;;;3.92;2.17;;;;;;;13.41;65.13;102112.44;5072317;28;20032;-77
2023/06/05 01:40:36;;;;;;;3.70;2.40;;;;;;;13.36;65.08;102104.59;5079287;28;20028;-77
2023/06/05 01:43:03;;;;;;;3.15;2.10;;;;;;;13.31;65.30;102104.69;5070552;28;20036;-77
2023/06/05 01:45:30;;;;;;;3.72;2.17;;;;;;;13.30;65.28;102102.13;5072466;28;20317;-77
2023/06/05 01:47:56;;;;;;;4.72;2.30;;;;;;;13.28;65.56;102106.50;5070231;28;20107;-77
2023/06/05 01:50:22;;;;;;;3.95;2.35;;;;;;;13.26;65.54;102103.06;5081620;28;20479;-77
2023/06/05 01:52:47;;;;;;;3.90;2.47;;;;;;;13.24;65.73;102099.59;5072506;28;20044;-77
2023/06/05 01:55:18;;;;;;;4.88;2.70;;;;;;;13.18;65.44;102096.19;5079359;28;20506;-77
2023/06/05 01:57:43;;;;;;;3.78;2.55;;;;;;;13.15;65.96;102101.44;5077213;28;20480;-77
2023/06/05 02:00:13;;;;;;;4.65;2.60;;;;;;;13.13;66.05;102089.31;5077543;28;20024;-77
2023/06/05 02:02:42;;;;;;;4.78;2.60;;;;;;;13.10;66.17;102082.41;5059868;28;20502;-77
2023/06/05 02:05:08;;;;;;;4.13;2.40;;;;;;;13.09;66.29;102085.03;5080107;28;20027;-77
2023/06/05 02:07:37;;;;;;;4.32;2.65;;;;;;;13.06;66.38;102085.94;5073383;28;20070;-77
2023/06/05 02:10:05;;;;;;;4.38;2.60;;;;;;;13.05;66.39;102089.44;5085785;28;20540;-77
2023/06/05 02:12:30;;;;;;;3.40;2.40;;;;;;;13.03;66.49;102080.75;5069296;28;20512;-77
2023/06/05 02:14:57;;;;;;;5.03;3.03;;;;;;;12.99;66.38;102079.06;5072140;28;20061;-77
2023/06/05 02:17:24;;;;;;;4.72;2.80;;;;;;;12.97;66.62;102076.50;5074075;28;20025;-77
2023/06/05 02:19:50;;;;;;;5.35;2.97;;;;;;;12.95;66.82;102080.03;5073914;28;20048;-77
2023/06/05 02:22:15;;;;;;;4.10;2.60;;;;;;;12.91;66.87;102084.44;5075822;28;20104;-77
2023/06/05 02:24:41;;;;;;;4.28;2.60;;;;;;;12.88;67.08;102076.66;5070869;28;20498;-77
2023/06/05 02:27:08;;;;;;;4.55;2.65;;;;;;;12.82;67.52;102077.59;5080999;28;20017;-77
2023/06/05 02:29:33;;;;;;;5.07;2.80;;;;;;;12.79;67.28;102080.28;5078482;28;20605;-77
2023/06/05 02:31:58;;;;;;;5.50;2.50;;;;;;;12.79;67.23;102080.28;5072577;28;20107;-77
2023/06/05 02:34:24;;;;;;;3.95;2.70;;;;;;;12.75;67.48;102074.22;5075597;28;20031;-77
2023/06/05 02:36:50;;;;;;;3.55;2.30;;;;;;;12.72;67.69;102071.66;5073673;28;20056;-77
2023/06/05 02:39:16;;;;;;;4.03;2.47;;;;;;;12.71;67.70;102071.69;5075647;28;20040;-77
2023/06/05 02:41:42;;;;;;;4.57;2.90;;;;;;;12.69;67.81;102076.06;5073287;28;20373;-77
2023/06/05 02:44:07;;;;;;;5.47;2.92;;;;;;;12.66;67.75;102074.38;5073156;28;20105;-77
2023/06/05 02:46:33;;;;;;;5.18;2.92;;;;;;;12.63;67.97;102063.13;5071954;28;20469;-77
2023/06/05 02:48:58;;;;;;;4.25;2.72;;;;;;;12.59;68.23;102075.31;5076313;28;20073;-77
2023/06/05 02:51:23;;;;;;;5.07;3.03;;;;;;;12.56;68.24;102070.16;5075861;28;20028;-77
2023/06/05 02:53:48;;;;;;;6.82;2.92;;;;;;;12.54;68.37;102072.78;5079715;28;20044;-77
2023/06/05 02:56:14;;;;;;;4.03;2.90;;;;;;;12.52;68.44;102064.13;5081589;28;20023;-77
2023/06/05 02:58:43;;;;;;;4.63;3.00;;;;;;;12.50;68.34;102065.03;5073736;28;20490;-77
2023/06/05 03:01:10;;;;;;;5.35;3.15;;;;;;;12.46;68.65;102059.00;5073338;28;20024;-77
2023/06/05 03:03:35;;;;;;;4.30;2.80;;;;;;;12.43;68.56;102057.28;5080281;28;20468;-77
2023/06/05 03:06:04;;;;;;;5.50;3.15;;;;;;;12.39;68.75;102062.56;5077491;28;20035;-77
2023/06/05 03:08:36;;;;;;;5.93;2.92;;;;;;;12.38;68.38;102069.50;5079853;28;20020;-77
2023/06/05 03:11:03;;;;;;;4.47;2.92;;;;;;;12.36;68.81;102079.13;5069463;28;20485;-77
2023/06/05 03:13:28;;;;;;;4.13;2.70;;;;;;;12.35;68.73;102076.53;5074788;28;20066;-77
2023/06/05 03:15:57;;;;;;;7.22;3.35;;;;;;;12.28;69.09;102066.19;5075635;28;20040;-77
2023/06/05 03:18:24;;;;;;;5.93;3.13;;;;;;;12.25;69.21;102068.84;5071386;28;20066;-77
2023/06/05 03:20:51;;;;;;;4.57;3.05;;;;;;;12.21;69.20;102069.75;5073022;28;20383;-77
2023/06/05 03:23:16;;;;;;;5.03;3.45;;;;;;;12.19;69.15;102063.69;5068293;28;20017;-77
2023/06/05 03:25:41;;;;;;;4.75;3.25;;;;;;;12.15;69.41;102064.59;5073899;28;20115;-77
2023/06/05 03:28:07;;;;;;;5.85;3.45;;;;;;;12.11;69.39;102062.94;5086313;28;20024;-77
2023/06/05 03:30:32;;;;;;;6.07;3.33;;;;;;;12.10;69.70;102058.59;5073246;28;20028;-77
2023/06/05 03:32:57;;;;;;;4.00;2.90;;;;;;;12.09;69.38;102055.13;5073817;28;20028;-77
2023/06/05 03:35:22;;;;;;;4.68;3.17;;;;;;;12.07;69.72;102051.66;5079161;28;20032;-77
2023/06/05 03:37:48;;;;;;;4.97;3.45;;;;;;;12.06;69.58;102051.69;5079866;28;20472;-77
2023/06/05 03:40:13;;;;;;;6.57;3.35;;;;;;;12.05;69.65;102047.34;5079443;28;20024;-77
2023/06/05 03:42:38;;;;;;;6.03;3.47;;;;;;;12.04;69.87;102048.22;5069063;28;20024;-77
2023/06/05 03:45:04;;;;;;;5.88;3.45;;;;;;;12.01;69.67;102046.53;5066821;28;20033;-77
2023/06/05 03:47:29;;;;;;;5.00;3.40;;;;;;;11.99;69.73;102054.38;5064417;28;20028;-77
2023/06/05 03:49:55;;;;;;;6.43;3.70;;;;;;;11.97;69.97;102050.88;5076130;28;20116;-77
2023/06/05 03:52:24;;;;;;;6.15;3.22;;;;;;;11.96;69.85;102058.72;5069768;28;20165;-77
2023/06/05 03:54:53;;;;;;;4.60;3.17;;;;;;;11.96;69.75;102050.91;5070493;28;20048;-77
2023/06/05 03:57:20;;;;;;;5.40;3.20;;;;;;;11.97;69.72;102047.41;5069592;28;20407;-77
2023/06/05 03:59:46;;;;;;;5.50;3.28;;;;;;;11.95;69.97;102050.06;5071692;28;20104;-77
2023/06/05 04:02:12;;;;;;;5.82;3.45;;;;;;;11.96;69.86;102058.72;5080420;28;20439;-77
2023/06/05 04:04:37;;;;;;;5.25;3.30;;;;;;;11.95;69.90;102050.06;5079956;28;20369;-77
2023/06/05 04:07:03;;;;;;;6.38;3.20;;;;;;;11.97;69.95;102050.03;5078487;28;20031;-77
2023/06/05 04:09:29;;;;;;;5.25;3.53;;;;;;;11.97;70.02;102048.25;5069767;28;20119;-77
2023/06/05 04:11:55;;;;;;;5.28;3.35;;;;;;;11.97;70.19;102045.66;5069669;28;20028;-77
2023/06/05 04:14:20;;;;;;;5.43;3.78;;;;;;;11.99;69.84;102048.28;5080874;28;20020;-77
2023/06/05 04:16:45;;;;;;;5.30;3.40;;;;;;;12.01;70.07;102048.25;5065029;28;20464;-77
2023/06/05 04:19:12;;;;;;;5.95;3.55;;;;;;;12.01;70.02;102046.53;5074124;28;20024;-77
2023/06/05 04:21:38;;;;;;;5.40;3.33;;;;;;;12.01;70.21;102045.66;5068321;28;20119;-77
2023/06/05 04:24:13;;;;;;;6.65;4.00;;;;;;;12.02;70.21;102047.38;5073063;28;20103;-77
2023/06/05 04:26:43;;;;;;;5.90;3.60;;;;;;;12.04;70.54;102056.06;5069050;28;20028;-77
2023/06/05 04:29:15;;;;;;;5.88;3.63;;;;;;;12.06;70.07;102059.50;5074492;28;20025;-77
2023/06/05 04:31:47;;;;;;;5.40;3.75;;;;;;;12.07;70.02;102056.88;5067206;28;20503;-77
2023/06/05 04:34:12;;;;;;;5.88;3.72;;;;;;;12.09;70.50;102062.09;5063815;28;20028;-77
2023/06/05 04:36:38;;;;;;;5.70;4.10;;;;;;;12.09;70.56;102059.47;5065389;28;20457;-77
2023/06/05 04:39:04;;;;;;;5.25;3.75;;;;;;;12.11;70.42;102069.00;5078857;28;20071;-77
2023/06/05 04:41:33;;;;;;;6.55;3.67;;;;;;;12.14;70.30;102068.09;5072624;28;20028;-77
2023/06/05 04:44:01;;;;;;;7.10;3.92;;;;;;;12.16;70.51;102066.34;5074059;28;20043;-77
2023/06/05 04:46:27;;;;;;;7.03;4.20;;;;;;;12.18;70.59;102069.78;5067166;28;20032;-77
2023/06/05 04:48:55;;;;;;;5.47;3.60;;;;;;;12.20;70.47;102068.03;5066175;28;20441;-77
2023/06/05 04:51:21;;;;;;;7.63;3.92;;;;;;;12.22;70.62;102070.59;5070603;28;20117;-77
2023/06/05 04:53:50;;;;;;;9.23;4.13;;;;;;;12.23;70.88;102073.22;5081320;28;20050;-77
2023/06/05 04:56:16;;;;;;;6.53;3.92;;;;;;;12.25;71.07;102071.44;5074260;28;20028;-77
2023/06/05 04:58:41;;;;;;;6.38;4.13;;;;;;;12.27;71.10;102069.69;5074624;28;20025;-77
2023/06/05 05:01:08;;;;;;;6.60;4.45;;;;;;;12.29;71.03;102070.53;5067585;28;20044;-77
2023/06/05 05:03:33;;;;;;;7.30;4.80;;;;;;;12.32;70.86;102076.56;5064630;28;20029;-76
2023/06/05 05:05:58;;;;;;;6.72;4.35;;;;;;;12.35;71.30;102073.91;5071213;28;20034;-77
2023/06/05 05:08:23;;;;;;;6.93;4.10;;;;;;;12.37;71.30;102074.78;5074295;28;20037;-77
2023/06/05 05:10:49;;;;;;;6.05;4.15;;;;;;;12.37;71.39;102078.25;5080247;28;20055;-77
2023/06/05 05:13:14;;;;;;;6.93;4.30;;;;;;;12.42;71.80;102078.19;5069095;28;20027;-77
2023/06/05 05:15:39;;;;;;;6.32;4.13;;;;;;;12.46;71.04;102077.28;5069211;28;20455;-77
2023/06/05 05:18:05;;;;;;;7.18;3.95;;;;;;;12.52;70.57;102074.56;5066527;28;20074;-77
2023/06/05 05:20:32;;;;;;;8.25;4.32;;;;;;;12.57;71.02;102077.97;5063695;28;20357;-77
2023/06/05 05:22:59;;;;;;;7.07;4.57;;;;;;;12.62;70.76;102074.44;5067606;28;20082;-77
2023/06/05 05:25:25;;;;;;;8.20;5.10;;;;;;;12.65;70.38;102076.97;5065526;28;20044;-77
2023/06/05 05:27:50;;;;;;;9.65;4.75;;;;;;;12.69;70.29;102071.72;5067628;28;20358;-77
2023/06/05 05:30:16;;;;;;;6.57;4.38;;;;;;;12.71;70.85;102066.47;5067828;28;20040;-77
2023/06/05 05:32:41;;;;;;;7.63;4.32;;;;;;;12.75;70.89;102061.16;5067073;28;20552;-77
2023/06/05 05:35:07;;;;;;;7.95;4.57;;;;;;;12.81;70.68;102062.81;5064830;28;20075;-77
2023/06/05 05:37:32;;;;;;;6.65;4.43;;;;;;;12.86;69.42;102066.22;5067766;28;20038;-77
2023/06/05 05:39:57;;;;;;;7.57;4.65;;;;;;;12.93;70.56;102068.75;5063717;28;20173;-77
2023/06/05 05:42:23;;;;;;;6.38;4.10;;;;;;;13.01;70.81;102056.41;5064939;28;20016;-77
2023/06/05 05:44:48;;;;;;;6.50;4.22;;;;;;;13.08;70.22;102058.03;5065732;28;20033;-77
2023/06/05 05:47:13;;;;;;;7.78;4.32;;;;;;;13.12;70.07;102070.19;5066282;28;20029;-77
2023/06/05 05:49:38;;;;;;;7.35;4.57;;;;;;;13.16;69.57;102070.97;5063413;28;20060;-77
2023/06/05 05:52:04;;;;;;;7.57;5.25;;;;;;;13.22;68.30;102076.13;5057565;28;20097;-78
2023/06/05 05:54:29;;;;;;;7.63;4.38;;;;;;;13.28;69.44;102081.22;5064557;28;20362;-77
2023/06/05 05:56:55;;;;;;;7.18;4.43;;;;;;;13.34;68.42;102080.25;5057324;28;20044;-77
2023/06/05 05:59:21;;;;;;;7.68;4.50;;;;;;;13.37;68.39;102077.56;5068373;28;20471;-77
2023/06/05 06:01:48;;;;;;;7.03;4.57;;;;;;;13.44;68.88;102075.75;5062630;28;20043;-77
2023/06/05 06:04:13;;;;;;;5.55;4.13;;;;;;;13.48;68.63;102085.25;5071860;28;20103;-77
2023/06/05 06:06:39;;;;;;;7.35;4.18;;;;;;;13.49;68.82;102074.78;5066760;28;20171;-77
2023/06/05 06:09:07;;;;;;;7.57;4.85;;;;;;;13.56;68.03;102082.50;5070967;28;20020;-77
2023/06/05 06:11:33;;;;;;;6.72;4.50;;;;;;;13.60;68.09;102087.66;5069995;28;20085;-77
2023/06/05 06:13:59;;;;;;;6.10;4.00;;;;;;;13.63;68.11;102087.59;5066721;28;20025;-77
2023/06/05 06:16:25;;;;;;;6.32;4.30;;;;;;;13.69;67.92;102088.38;5063720;28;20195;-77
2023/06/05 06:18:50;;;;;;;8.60;4.53;;;;;;;13.73;66.89;102093.53;5065478;28;20090;-78
2023/06/05 06:21:15;;;;;;;7.50;4.43;;;;;;;13.79;68.54;102093.41;5063105;28;20020;-77
2023/06/05 06:23:41;;;;;;;8.90;4.45;;;;;;;13.86;66.70;102093.28;5066358;28;20048;-77
2023/06/05 06:26:07;;;;;;;9.02;4.60;;;;;;;13.93;67.65;102094.91;5063631;28;20036;-78
2023/06/05 06:28:32;;;;;;;8.57;4.88;;;;;;;13.97;66.91;102093.94;5063386;28;21967;-78
2023/06/05 06:30:57;;;;;;;8.10;4.20;;;;;;;14.01;65.66;102092.97;5064598;28;20029;-78
2023/06/05 06:33:24;;;;;;;7.07;4.50;;;;;;;14.04;65.36;102095.53;5060737;28;20120;-78
2023/06/05 06:35:49;;;;;;;5.90;3.88;;;;;;;14.09;66.31;102085.84;5062666;28;20042;-78
2023/06/05 06:38:16;;;;;;;6.90;5.00;;;;;;;14.11;65.48;102094.53;5059790;28;20089;-78
2023/06/05 06:40:42;;;;;;;7.00;4.38;;;;;;;14.14;64.97;102088.34;5063012;28;20623;-77
2023/06/05 06:43:07;;;;;;;7.10;4.18;;;;;;;14.20;66.58;102089.97;5059820;28;20020;-77
2023/06/05 06:45:32;;;;;;;6.50;4.10;;;;;;;14.26;66.20;102093.31;5063205;28;20043;-78
2023/06/05 06:47:57;;;;;;;6.88;4.15;;;;;;;14.31;64.80;102088.03;5061190;28;20540;-78
2023/06/05 06:50:23;;;;;;;6.03;4.05;;;;;;;14.36;65.33;102094.00;5061384;28;20036;-78
2023/06/05 06:52:48;;;;;;;6.28;3.95;;;;;;;14.41;65.45;102096.53;5062379;28;20094;-78
2023/06/05 06:55:13;;;;;;;5.07;3.58;;;;;;;14.47;65.84;102095.53;5066038;28;20020;-78
2023/06/05 06:57:39;;;;;;;6.53;3.95;;;;;;;14.50;63.71;102092.84;5067090;28;20016;-78
2023/06/05 07:00:09;;;;;;;7.25;4.15;;;;;;;14.53;64.12;102101.50;5064557;28;20025;-78
2023/06/05 07:02:36;;;;;;;6.28;4.07;;;;;;;14.61;64.73;102103.94;5060048;28;20041;-79
2023/06/05 07:05:01;;;;;;;6.07;3.92;;;;;;;14.67;65.53;102106.44;5064282;28;20024;-78
2023/06/05 07:07:27;;;;;;;7.57;3.97;;;;;;;14.71;64.19;102102.00;5061525;28;20545;-77
2023/06/05 07:09:53;;;;;;;7.20;4.13;;;;;;;14.74;63.72;102104.56;5060415;28;20024;-78
2023/06/05 07:12:20;;;;;;;8.27;4.00;;;;;;;14.79;64.30;102107.06;5056506;28;20493;-78
2023/06/05 07:14:46;;;;;;;7.45;4.22;;;;;;;14.84;64.38;102110.47;5064201;28;20380;-78
2023/06/05 07:17:11;;;;;;;7.35;4.50;;;;;;;14.90;64.97;102115.53;5066016;28;20028;-78
2023/06/05 07:19:36;;;;;;;6.20;3.95;;;;;;;14.94;63.87;102114.56;5059615;28;20056;-78
2023/06/05 07:22:04;;;;;;;6.68;3.83;;;;;;;14.98;63.43;102113.59;5062485;28;20024;-78
2023/06/05 07:24:30;;;;;;;7.35;4.55;;;;;;;15.00;64.21;102111.81;5064103;28;20439;-78
2023/06/05 07:27:00;;;;;;;7.50;4.20;;;;;;;15.03;63.55;102114.34;5060100;28;20116;-79
2023/06/05 07:29:26;;;;;;;6.07;4.22;;;;;;;15.03;64.27;102116.97;5063678;28;20103;-78
2023/06/05 07:31:53;;;;;;;5.15;3.60;;;;;;;15.07;64.24;102115.16;5062139;28;20067;-79
2023/06/05 07:34:20;;;;;;;6.80;4.03;;;;;;;15.11;63.70;102121.16;5057556;28;20052;-79
2023/06/05 07:36:47;;;;;;;7.00;3.90;;;;;;;15.14;64.41;102113.25;5061142;28;20078;-78
2023/06/05 07:39:13;;;;;;;8.05;3.97;;;;;;;15.21;63.56;102116.56;5064295;28;20431;-78
2023/06/05 07:41:39;;;;;;;4.70;3.55;;;;;;;15.24;64.31;102106.84;5067887;28;21557;-78
2023/06/05 07:44:07;;;;;;;6.20;3.90;;;;;;;15.30;63.79;102108.44;5061393;28;20021;-78
2023/06/05 07:46:32;;;;;;;7.00;4.60;;;;;;;15.32;62.39;102112.78;5062792;28;20415;-78
2023/06/05 07:48:58;;;;;;;6.82;4.13;;;;;;;15.38;62.75;102110.88;5062929;28;20157;-78
2023/06/05 07:51:23;;;;;;;4.82;3.78;;;;;;;15.43;64.01;102109.88;5063701;28;20089;-78
2023/06/05 07:53:48;;;;;;;5.45;3.72;;;;;;;15.46;63.12;102112.41;5059370;28;20127;-78
2023/06/05 07:56:16;;;;;;;6.95;4.40;;;;;;;15.48;63.48;102107.13;5066120;28;20032;-78
2023/06/05 07:58:42;;;;;;;5.53;3.90;;;;;;;15.51;63.30;102109.69;5066128;28;20059;-77
2023/06/05 08:01:08;;;;;;;7.63;4.10;;;;;;;15.55;63.42;102108.69;5058373;28;20063;-79
2023/06/05 08:03:33;;;;;;;5.43;3.90;;;;;;;15.62;63.77;102109.41;5058547;28;20024;-77
2023/06/05 08:05:59;;;;;;;8.40;4.32;;;;;;;15.68;61.94;102108.38;5057094;28;20028;-77
2023/06/05 08:08:24;;;;;;;5.93;4.00;;;;;;;15.70;62.76;102106.56;5061233;28;20025;-78
2023/06/05 08:10:50;;;;;;;7.35;3.88;;;;;;;15.75;63.04;102109.91;5061039;28;20554;-78
2023/06/05 08:13:16;;;;;;;5.97;4.10;;;;;;;15.81;63.54;102094.00;5061987;28;20458;-78
2023/06/05 08:15:41;;;;;;;6.85;4.25;;;;;;;15.82;62.76;102094.84;5062155;28;20032;-78
2023/06/05 08:18:06;;;;;;;6.50;3.97;;;;;;;15.83;63.01;102093.97;5059551;28;20027;-78
2023/06/05 08:20:32;;;;;;;7.47;4.28;;;;;;;15.86;63.69;102092.16;5061129;28;20853;-79
2023/06/05 08:22:57;;;;;;;6.30;4.05;;;;;;;15.90;63.41;102090.31;5061940;28;20025;-79
2023/06/05 08:25:24;;;;;;;8.32;4.40;;;;;;;15.97;62.01;102093.63;5060725;28;20027;-79
2023/06/05 08:27:49;;;;;;;6.57;3.95;;;;;;;15.99;62.27;102083.94;5057964;28;20032;-80
2023/06/05 08:30:16;;;;;;;6.57;4.38;;;;;;;16.05;62.75;102091.66;5060447;28;20341;-79
2023/06/05 08:32:41;;;;;;;6.68;4.10;;;;;;;16.07;62.74;102087.19;5061748;28;20100;-79
2023/06/05 08:35:07;;;;;;;6.25;4.05;;;;;;;16.11;61.09;102086.19;5061324;28;20448;-79
2023/06/05 08:37:32;;;;;;;7.90;4.25;;;;;;;16.14;62.32;102073.00;5060796;28;20036;-79
2023/06/05 08:40:00;;;;;;;6.65;3.45;;;;;;;16.21;62.58;102071.91;5062676;28;20016;-79
2023/06/05 08:42:28;;;;;;;7.05;3.58;;;;;;;16.28;61.12;102072.59;5058252;28;20025;-79
2023/06/05 08:44:54;;;;;;;6.50;3.55;;;;;;;16.36;61.26;102069.72;5052432;28;20043;-79
2023/06/05 08:47:22;;;;;;;6.07;3.60;;;;;;;16.43;60.92;102076.50;5058667;28;20038;-79
2023/06/05 08:49:51;;;;;;;6.90;3.80;;;;;;;16.49;60.88;102071.06;5057384;28;20083;-80
2023/06/05 08:52:20;;;;;;;6.15;4.00;;;;;;;16.58;61.21;102079.53;5062975;28;20024;-80
2023/06/05 08:54:46;;;;;;;6.75;4.45;;;;;;;16.58;59.55;102069.03;5055206;28;20127;-79
2023/06/05 08:57:11;;;;;;;7.07;3.78;;;;;;;16.58;61.07;102069.03;5062550;28;20107;-78
2023/06/05 08:59:36;;;;;;;6.35;3.97;;;;;;;16.65;60.66;102075.84;5059598;28;20028;-78
2023/06/05 09:02:02;;;;;;;6.78;4.13;;;;;;;16.71;61.51;102067.75;5058098;28;20021;-77
2023/06/05 09:04:30;;;;;;;7.07;3.95;;;;;;;16.77;61.05;102070.19;5062537;28;20571;-78
2023/06/05 09:07:01;;;;;;;8.85;4.03;;;;;;;16.81;59.56;102061.28;5060367;28;20032;-79
2023/06/05 09:09:27;;;;;;;6.53;3.92;;;;;;;16.89;60.31;102070.72;5062661;28;20444;-79
2023/06/05 09:12:06;;;;;;;6.43;3.70;;;;;;;16.95;60.38;102068.78;5065268;28;20029;-79
2023/06/05 09:14:35;;;;;;;8.10;4.05;;;;;;;17.01;58.89;102066.81;5061894;28;20066;-78
2023/06/05 09:17:02;;;;;;;7.63;3.38;;;;;;;17.06;59.61;102075.44;5070443;28;20038;-77
2023/06/05 09:19:38;;;;;;;5.15;2.92;;;;;;;17.14;59.53;102068.16;5066505;28;20397;-77
2023/06/05 09:22:06;;;;;;;5.60;3.53;;;;;;;17.19;58.86;102063.56;5068393;28;20029;-78
2023/06/05 09:24:32;;;;;;;5.65;3.63;;;;;;;17.26;59.15;102067.72;5068092;28;20078;-78
2023/06/05 09:27:01;;;;;;;5.90;4.07;;;;;;;17.32;59.24;102066.66;5067215;28;20406;-78
2023/06/05 09:29:31;;;;;;;7.00;3.70;;;;;;;17.38;60.65;102062.94;5065399;28;20028;-78
2023/06/05 09:32:04;;;;;;;5.93;3.90;;;;;;;17.42;59.59;102061.94;5057582;28;20048;-79
2023/06/05 09:34:38;;;;;;;6.43;3.78;;;;;;;17.48;58.63;102063.47;5065706;28;20426;-78
2023/06/05 09:37:05;;;;;;;6.80;4.00;;;;;;;17.55;58.30;102057.09;5061249;28;20028;-78
2023/06/05 09:39:32;;;;;;;7.68;3.72;;;;;;;17.58;58.63;102051.75;5068344;28;20025;-78
2023/06/05 09:41:59;;;;;;;6.70;4.00;;;;;;;17.63;58.49;102048.94;5065421;28;20033;-78
2023/06/05 09:44:25;;;;;;;7.10;3.85;;;;;;;17.65;57.10;102053.22;5066829;28;20025;-77
2023/06/05 09:46:52;;;;;;;6.40;4.03;;;;;;;17.69;57.24;102049.56;5062343;28;20029;-78
2023/06/05 09:49:18;;;;;;;7.22;3.60;;;;;;;17.74;57.78;102052.03;5068495;28;20036;-78
2023/06/05 09:51:43;;;;;;;5.07;3.67;;;;;;;17.81;59.39;102057.91;5065654;28;20032;-79
2023/06/05 09:54:11;;;;;;;5.90;3.67;;;;;;;17.88;56.84;102062.06;5067562;28;20033;-79
2023/06/05 09:56:39;;;;;;;6.57;3.42;;;;;;;17.93;56.61;102057.47;5061293;28;20108;-78
2023/06/05 09:59:05;;;;;;;5.88;3.72;;;;;;;17.95;56.26;102058.25;5068966;28;20024;-78
2023/06/05 10:01:35;;;;;;;7.07;3.63;;;;;;;17.99;56.61;102049.38;5061957;28;20020;-78
2023/06/05 10:04:05;;;;;;;6.75;3.67;;;;;;;18.02;57.36;102046.63;5070145;28;20070;-78
2023/06/05 10:06:32;;;;;;;6.60;3.80;;;;;;;18.09;55.93;102041.13;5067634;28;20483;-77
2023/06/05 10:08:59;;;;;;;5.93;2.92;;;;;;;18.14;55.91;102039.16;5065654;28;20449;-79
2023/06/05 10:11:26;;;;;;;5.63;3.60;;;;;;;18.15;54.06;102035.59;5060637;28;20028;-79
2023/06/05 10:13:51;;;;;;;6.13;3.72;;;;;;;18.19;57.00;102032.78;5062195;28;20036;-78
2023/06/05 10:16:18;;;;;;;6.93;3.65;;;;;;;18.28;56.47;102031.56;5061034;28;20029;-78
2023/06/05 10:18:47;;;;;;;6.78;3.55;;;;;;;18.35;56.01;102037.47;5062548;28;20035;-78
2023/06/05 10:21:15;;;;;;;5.75;3.35;;;;;;;18.42;55.99;102038.09;5063219;28;20462;-78
2023/06/05 10:23:43;;;;;;;6.20;3.20;;;;;;;18.50;57.54;102036.88;5063236;28;20054;-79
2023/06/05 10:26:21;;;;;;;7.38;4.07;;;;;;;18.58;57.20;102036.56;5064750;28;20021;-78
2023/06/05 10:29:12;;;;;;;4.72;3.25;;;;;;;18.62;55.46;102035.50;5065270;28;20127;-78
2023/06/05 10:31:48;;;;;;;7.32;3.53;;;;;;;18.65;56.18;102030.09;5063658;28;20077;-78
2023/06/05 10:34:42;;;;;;;8.93;3.95;;;;;;;18.66;54.46;102031.81;5066840;28;20029;-78
2023/06/05 10:37:55;;;;;;;8.02;3.65;;;;;;;18.65;55.63;102035.38;5065052;28;20032;-78
2023/06/05 10:40:23;;;;;;;5.57;3.03;;;;;;;18.69;55.17;102035.25;5060708;28;20502;-78
2023/06/05 10:42:49;;;;;;;7.10;3.60;;;;;;;18.72;53.04;102029.88;5061222;28;20031;-78
2023/06/05 10:45:30;;;;;;;6.55;3.55;;;;;;;18.73;54.54;102023.66;5066264;28;20025;-79
2023/06/05 10:47:55;;;;;;;6.18;3.10;;;;;;;18.78;54.55;102029.63;5060659;28;20056;-79
2023/06/05 10:50:22;;;;;;;5.28;3.33;;;;;;;18.84;55.02;102028.50;5071349;28;20111;-78
2023/06/05 10:52:49;;;;;;;6.00;3.20;;;;;;;18.90;54.39;102018.56;5063589;28;20025;-78
2023/06/05 10:55:15;;;;;;;5.85;3.33;;;;;;;18.98;55.09;102020.03;5062148;28;20078;-78
2023/06/05 10:58:15;;;;;;;8.00;3.00;;;;;;;19.04;54.87;102019.78;5068423;28;20574;-78
2023/06/05 11:01:22;;;;;;;7.22;3.83;;;;;;;19.11;54.21;102021.22;5062129;28;20146;-78
2023/06/05 11:04:00;;;;;;;4.43;2.83;;;;;;;19.17;54.19;102015.69;5065367;28;20525;-79
2023/06/05 11:06:27;;;;;;;7.03;3.00;;;;;;;19.19;50.41;102013.84;5065989;28;20040;-79
2023/06/05 11:09:12;;;;;;;4.78;2.95;;;;;;;19.22;53.39;102004.91;5060090;28;20024;-79
2023/06/05 11:12:00;;;;;;;5.05;2.92;;;;;;;19.23;52.98;102007.50;5063365;28;20032;-79
2023/06/05 11:14:48;;;;;;;6.00;2.55;;;;;;;19.27;53.21;102000.31;5067976;28;20024;-79
2023/06/05 11:17:33;;;;;;;4.25;2.67;;;;;;;19.31;52.42;102001.00;5064206;28;20509;-78
2023/06/05 11:19:59;;;;;;;4.72;2.92;;;;;;;19.35;53.58;101997.31;5067509;28;20074;-79
2023/06/05 11:22:26;;;;;;;4.93;3.08;;;;;;;19.39;51.94;101993.63;5068743;28;20040;-79
2023/06/05 11:25:31;;;;;;;6.35;3.17;;;;;;;19.46;53.35;101996.84;5062868;28;20016;-79
2023/06/05 11:27:59;;;;;;;5.53;2.88;;;;;;;19.51;52.24;101994.88;5006975;28;20096;-78